sensor_id;sensor_type;location;lat;lon;timestamp;temperature;humidity
20929;DHT22;21895;47.072;15.132;2023-02-15T00:00:17;0.80;99.90
20929;DHT22;21895;47.072;15.132;2023-02-15T00:02:44;0.90;99.90
20929;DHT22;21895;47.072;15.132;2023-02-15T00:05:11;0.90;99.90
20929;DHT22;21895;47.072;15.132;2023-02-15T00:07:37;1.00;99.90
20929;DHT22;21895;47.072;15.132;2023-02-15T00:10:06;1.00;99.90
20929;DHT22;21895;47.072;15.132;2023-02-15T00:12:33;1.10;99.90
20929;DHT22;21895;47.072;15.132;2023-02-15T00:15:00;1.10;99.90
20929;DHT22;21895;47.072;15.132;2023-02-15T00:17:28;1.00;99.90
20929;DHT22;21895;47.072;15.132;2023-02-15T00:19:54;1.00;99.90
20929;DHT22;21895;47.072;15.132;2023-02-15T00:22:21;1.10;99.90
20929;DHT22;21895;47.072;15.132;2023-02-15T00:24:47;1.10;99.90
20929;DHT22;21895;47.072;15.132;2023-02-15T00:27:15;1.10;99.90
20929;DHT22;21895;47.072;15.132;2023-02-15T00:29:42;1.10;99.90
20929;DHT22;21895;47.072;15.132;2023-02-15T00:32:08;1.10;99.90
20929;DHT22;21895;47.072;15.132;2023-02-15T00:34:35;1.10;99.90
20929;DHT22;21895;47.072;15.132;2023-02-15T00:37:01;1.10;99.90
20929;DHT22;21895;47.072;15.132;2023-02-15T00:39:28;1.20;99.90
20929;DHT22;21895;47.072;15.132;2023-02-15T00:41:54;1.20;99.90
20929;DHT22;21895;47.072;15.132;2023-02-15T00:44:21;1.20;99.90
20929;DHT22;21895;47.072;15.132;2023-02-15T00:46:47;1.30;99.90
20929;DHT22;21895;47.072;15.132;2023-02-15T00:49:14;1.30;99.90
20929;DHT22;21895;47.072;15.132;2023-02-15T00:51:40;1.40;99.90
20929;DHT22;21895;47.072;15.132;2023-02-15T00:54:07;1.40;99.90
20929;DHT22;21895;47.072;15.132;2023-02-15T00:56:33;1.40;99.90
20929;DHT22;21895;47.072;15.132;2023-02-15T00:59:00;1.50;99.90
20929;DHT22;21895;47.072;15.132;2023-02-15T01:01:26;1.50;99.90
20929;DHT22;21895;47.072;15.132;2023-02-15T01:03:53;1.50;99.90
20929;DHT22;21895;47.072;15.132;2023-02-15T01:06:19;1.50;99.90
20929;DHT22;21895;47.072;15.132;2023-02-15T01:08:47;1.50;99.90
20929;DHT22;21895;47.072;15.132;2023-02-15T01:11:16;1.50;99.90
20929;DHT22;21895;47.072;15.132;2023-02-15T01:13:52;1.50;99.90
20929;DHT22;21895;47.072;15.132;2023-02-15T01:16:22;1.60;99.90
20929;DHT22;21895;47.072;15.132;2023-02-15T01:18:49;1.60;99.90
20929;DHT22;21895;47.072;15.132;2023-02-15T01:21:21;1.50;99.90
20929;DHT22;21895;47.072;15.132;2023-02-15T01:23:48;1.60;99.90
20929;DHT22;21895;47.072;15.132;2023-02-15T01:26:16;1.60;99.90
20929;DHT22;21895;47.072;15.132;2023-02-15T01:28:43;1.70;99.90
20929;DHT22;21895;47.072;15.132;2023-02-15T01:31:13;1.70;99.90
20929;DHT22;21895;47.072;15.132;2023-02-15T01:33:41;1.70;99.90
20929;DHT22;21895;47.072;15.132;2023-02-15T01:36:09;1.80;99.90
20929;DHT22;21895;47.072;15.132;2023-02-15T01:38:35;1.80;99.90
20929;DHT22;21895;47.072;15.132;2023-02-15T01:41:02;1.80;99.90
20929;DHT22;21895;47.072;15.132;2023-02-15T01:43:56;1.80;99.90
20929;DHT22;21895;47.072;15.132;2023-02-15T01:46:40;1.80;99.90
20929;DHT22;21895;47.072;15.132;2023-02-15T01:49:19;1.90;99.90
20929;DHT22;21895;47.072;15.132;2023-02-15T01:51:52;1.80;99.90
20929;DHT22;21895;47.072;15.132;2023-02-15T01:54:37;1.90;99.90
20929;DHT22;21895;47.072;15.132;2023-02-15T01:57:11;1.90;99.90
20929;DHT22;21895;47.072;15.132;2023-02-15T01:59:46;1.90;99.90
20929;DHT22;21895;47.072;15.132;2023-02-15T02:02:17;2.00;99.90
20929;DHT22;21895;47.072;15.132;2023-02-15T02:04:52;2.00;99.90
20929;DHT22;21895;47.072;15.132;2023-02-15T02:07:23;1.90;99.90
20929;DHT22;21895;47.072;15.132;2023-02-15T02:09:53;1.90;99.90
20929;DHT22;21895;47.072;15.132;2023-02-15T02:12:20;1.90;99.90
20929;DHT22;21895;47.072;15.132;2023-02-15T02:14:49;1.90;99.90
20929;DHT22;21895;47.072;15.132;2023-02-15T02:26:27;1.90;99.90
20929;DHT22;21895;47.072;15.132;2023-02-15T02:38:49;1.90;99.90
20929;DHT22;21895;47.072;15.132;2023-02-15T02:44:06;2.00;99.90
20929;DHT22;21895;47.072;15.132;2023-02-15T02:47:22;2.10;99.90
20929;DHT22;21895;47.072;15.132;2023-02-15T02:50:04;2.10;99.90
20929;DHT22;21895;47.072;15.132;2023-02-15T02:52:52;2.10;99.90
20929;DHT22;21895;47.072;15.132;2023-02-15T02:58:18;2.10;99.90
20929;DHT22;21895;47.072;15.132;2023-02-15T03:01:20;2.20;99.90
20929;DHT22;21895;47.072;15.132;2023-02-15T03:04:17;2.10;99.90
20929;DHT22;21895;47.072;15.132;2023-02-15T03:06:53;2.10;99.90
20929;DHT22;21895;47.072;15.132;2023-02-15T03:09:46;2.10;99.90
20929;DHT22;21895;47.072;15.132;2023-02-15T03:12:26;2.10;99.90
20929;DHT22;21895;47.072;15.132;2023-02-15T03:15:03;2.10;99.90
20929;DHT22;21895;47.072;15.132;2023-02-15T03:17:35;2.20;99.90
20929;DHT22;21895;47.072;15.132;2023-02-15T03:20:19;2.20;99.90
20929;DHT22;21895;47.072;15.132;2023-02-15T03:22:54;2.20;99.90
20929;DHT22;21895;47.072;15.132;2023-02-15T03:25:31;2.30;99.90
20929;DHT22;21895;47.072;15.132;2023-02-15T03:28:15;2.20;99.90
20929;DHT22;21895;47.072;15.132;2023-02-15T03:30:52;2.20;99.90
20929;DHT22;21895;47.072;15.132;2023-02-15T03:33:23;2.40;99.90
20929;DHT22;21895;47.072;15.132;2023-02-15T03:41:16;2.40;99.90
20929;DHT22;21895;47.072;15.132;2023-02-15T03:43:53;2.40;99.90
20929;DHT22;21895;47.072;15.132;2023-02-15T03:46:47;2.30;99.90
20929;DHT22;21895;47.072;15.132;2023-02-15T03:49:36;2.30;99.90
20929;DHT22;21895;47.072;15.132;2023-02-15T03:52:15;2.30;99.90
20929;DHT22;21895;47.072;15.132;2023-02-15T03:54:43;2.20;99.90
20929;DHT22;21895;47.072;15.132;2023-02-15T03:57:25;2.30;99.90
20929;DHT22;21895;47.072;15.132;2023-02-15T04:00:18;2.30;99.90
20929;DHT22;21895;47.072;15.132;2023-02-15T04:06:37;2.40;99.90
20929;DHT22;21895;47.072;15.132;2023-02-15T04:09:04;2.40;99.90
20929;DHT22;21895;47.072;15.132;2023-02-15T04:11:49;2.40;99.90
20929;DHT22;21895;47.072;15.132;2023-02-15T04:14:15;2.40;99.90
20929;DHT22;21895;47.072;15.132;2023-02-15T04:17:00;2.40;99.90
20929;DHT22;21895;47.072;15.132;2023-02-15T04:19:26;2.40;99.90
20929;DHT22;21895;47.072;15.132;2023-02-15T04:22:11;2.50;99.90
20929;DHT22;21895;47.072;15.132;2023-02-15T04:24:56;2.50;99.90
20929;DHT22;21895;47.072;15.132;2023-02-15T04:27:42;2.50;99.90
20929;DHT22;21895;47.072;15.132;2023-02-15T04:30:17;2.50;99.90
20929;DHT22;21895;47.072;15.132;2023-02-15T04:32:46;2.50;99.90
20929;DHT22;21895;47.072;15.132;2023-02-15T04:35:13;2.60;99.90
20929;DHT22;21895;47.072;15.132;2023-02-15T04:37:41;2.50;99.90
20929;DHT22;21895;47.072;15.132;2023-02-15T04:40:10;2.50;99.90
20929;DHT22;21895;47.072;15.132;2023-02-15T04:42:38;2.50;99.90
20929;DHT22;21895;47.072;15.132;2023-02-15T04:45:05;2.60;99.90
20929;DHT22;21895;47.072;15.132;2023-02-15T04:47:33;2.70;99.90
20929;DHT22;21895;47.072;15.132;2023-02-15T04:49:59;2.60;99.90
20929;DHT22;21895;47.072;15.132;2023-02-15T04:52:26;2.60;99.90
20929;DHT22;21895;47.072;15.132;2023-02-15T04:54:52;2.60;99.90
20929;DHT22;21895;47.072;15.132;2023-02-15T04:57:19;2.70;99.90
20929;DHT22;21895;47.072;15.132;2023-02-15T04:59:45;2.60;99.90
20929;DHT22;21895;47.072;15.132;2023-02-15T05:02:12;2.50;99.90
20929;DHT22;21895;47.072;15.132;2023-02-15T05:04:38;2.50;99.90
20929;DHT22;21895;47.072;15.132;2023-02-15T05:07:05;2.50;99.90
20929;DHT22;21895;47.072;15.132;2023-02-15T05:09:34;2.50;99.90
20929;DHT22;21895;47.072;15.132;2023-02-15T05:12:00;2.50;99.90
20929;DHT22;21895;47.072;15.132;2023-02-15T05:14:27;2.50;99.90
20929;DHT22;21895;47.072;15.132;2023-02-15T05:16:55;2.50;99.90
20929;DHT22;21895;47.072;15.132;2023-02-15T05:19:22;2.50;99.90
20929;DHT22;21895;47.072;15.132;2023-02-15T05:21:50;2.50;99.90
20929;DHT22;21895;47.072;15.132;2023-02-15T05:24:16;2.40;99.90
20929;DHT22;21895;47.072;15.132;2023-02-15T05:27:01;2.40;99.90
20929;DHT22;21895;47.072;15.132;2023-02-15T05:29:46;2.50;99.90
20929;DHT22;21895;47.072;15.132;2023-02-15T05:32:13;2.50;99.90
20929;DHT22;21895;47.072;15.132;2023-02-15T05:34:40;2.40;99.90
20929;DHT22;21895;47.072;15.132;2023-02-15T05:37:07;2.40;99.90
20929;DHT22;21895;47.072;15.132;2023-02-15T05:39:34;2.40;99.90
20929;DHT22;21895;47.072;15.132;2023-02-15T05:42:00;2.40;99.90
20929;DHT22;21895;47.072;15.132;2023-02-15T05:44:27;2.30;99.90
20929;DHT22;21895;47.072;15.132;2023-02-15T05:46:53;2.20;99.90
20929;DHT22;21895;47.072;15.132;2023-02-15T05:49:20;2.20;99.90
20929;DHT22;21895;47.072;15.132;2023-02-15T05:51:46;2.20;99.90
20929;DHT22;21895;47.072;15.132;2023-02-15T05:54:13;2.20;99.90
20929;DHT22;21895;47.072;15.132;2023-02-15T05:56:39;2.20;99.90
20929;DHT22;21895;47.072;15.132;2023-02-15T05:59:06;2.30;99.90
20929;DHT22;21895;47.072;15.132;2023-02-15T06:01:32;2.30;99.90
20929;DHT22;21895;47.072;15.132;2023-02-15T06:03:59;2.20;99.90
20929;DHT22;21895;47.072;15.132;2023-02-15T06:06:25;2.30;99.90
20929;DHT22;21895;47.072;15.132;2023-02-15T06:08:52;2.30;99.90
20929;DHT22;21895;47.072;15.132;2023-02-15T06:11:18;2.20;99.90
20929;DHT22;21895;47.072;15.132;2023-02-15T06:13:45;2.20;99.90
20929;DHT22;21895;47.072;15.132;2023-02-15T06:16:11;2.20;99.90
20929;DHT22;21895;47.072;15.132;2023-02-15T06:18:38;2.20;99.90
20929;DHT22;21895;47.072;15.132;2023-02-15T06:21:04;2.20;99.90
20929;DHT22;21895;47.072;15.132;2023-02-15T06:23:31;2.20;99.90
20929;DHT22;21895;47.072;15.132;2023-02-15T06:25:57;2.20;99.90
20929;DHT22;21895;47.072;15.132;2023-02-15T06:28:24;2.20;99.90
20929;DHT22;21895;47.072;15.132;2023-02-15T06:30:51;2.30;99.90
20929;DHT22;21895;47.072;15.132;2023-02-15T06:33:18;2.30;99.90
20929;DHT22;21895;47.072;15.132;2023-02-15T06:35:45;2.20;99.90
20929;DHT22;21895;47.072;15.132;2023-02-15T06:38:12;2.10;99.90
20929;DHT22;21895;47.072;15.132;2023-02-15T06:40:39;2.00;99.90
20929;DHT22;21895;47.072;15.132;2023-02-15T06:43:05;1.90;99.90
20929;DHT22;21895;47.072;15.132;2023-02-15T06:45:32;2.00;99.90
20929;DHT22;21895;47.072;15.132;2023-02-15T06:47:58;2.00;99.90
20929;DHT22;21895;47.072;15.132;2023-02-15T06:50:25;1.90;99.90
20929;DHT22;21895;47.072;15.132;2023-02-15T06:52:56;1.90;99.90
20929;DHT22;21895;47.072;15.132;2023-02-15T06:55:23;2.00;99.90
20929;DHT22;21895;47.072;15.132;2023-02-15T06:57:50;2.10;99.90
20929;DHT22;21895;47.072;15.132;2023-02-15T07:00:17;2.20;99.90
20929;DHT22;21895;47.072;15.132;2023-02-15T07:02:44;2.30;99.90
20929;DHT22;21895;47.072;15.132;2023-02-15T07:05:13;2.30;99.90
20929;DHT22;21895;47.072;15.132;2023-02-15T07:07:39;2.50;99.90
20929;DHT22;21895;47.072;15.132;2023-02-15T07:10:06;2.50;99.90
20929;DHT22;21895;47.072;15.132;2023-02-15T07:12:33;2.50;99.90
20929;DHT22;21895;47.072;15.132;2023-02-15T07:15:12;2.60;99.90
20929;DHT22;21895;47.072;15.132;2023-02-15T07:17:41;2.60;99.90
20929;DHT22;21895;47.072;15.132;2023-02-15T07:20:14;2.60;99.90
20929;DHT22;21895;47.072;15.132;2023-02-15T07:22:42;2.70;99.90
20929;DHT22;21895;47.072;15.132;2023-02-15T07:25:10;2.50;99.90
20929;DHT22;21895;47.072;15.132;2023-02-15T07:27:38;2.60;99.90
20929;DHT22;21895;47.072;15.132;2023-02-15T07:30:06;2.60;99.90
20929;DHT22;21895;47.072;15.132;2023-02-15T07:32:36;2.60;99.90
20929;DHT22;21895;47.072;15.132;2023-02-15T07:35:59;2.60;99.90
20929;DHT22;21895;47.072;15.132;2023-02-15T07:38:36;2.70;99.90
20929;DHT22;21895;47.072;15.132;2023-02-15T07:41:08;2.70;99.90
20929;DHT22;21895;47.072;15.132;2023-02-15T07:43:38;2.80;99.90
20929;DHT22;21895;47.072;15.132;2023-02-15T07:46:09;2.80;99.90
20929;DHT22;21895;47.072;15.132;2023-02-15T07:48:38;2.80;99.90
20929;DHT22;21895;47.072;15.132;2023-02-15T07:51:07;2.80;99.90
20929;DHT22;21895;47.072;15.132;2023-02-15T07:53:36;2.80;99.90
20929;DHT22;21895;47.072;15.132;2023-02-15T07:56:15;2.70;99.90
20929;DHT22;21895;47.072;15.132;2023-02-15T07:58:41;2.70;99.90
20929;DHT22;21895;47.072;15.132;2023-02-15T08:01:29;2.80;99.90
20929;DHT22;21895;47.072;15.132;2023-02-15T08:03:57;2.80;99.90
20929;DHT22;21895;47.072;15.132;2023-02-15T08:06:27;2.90;99.90
20929;DHT22;21895;47.072;15.132;2023-02-15T08:08:55;2.90;99.90
20929;DHT22;21895;47.072;15.132;2023-02-15T08:11:24;2.80;99.90
20929;DHT22;21895;47.072;15.132;2023-02-15T08:14:06;2.90;99.90
20929;DHT22;21895;47.072;15.132;2023-02-15T08:16:36;2.90;99.90
20929;DHT22;21895;47.072;15.132;2023-02-15T08:19:19;2.90;99.90
20929;DHT22;21895;47.072;15.132;2023-02-15T08:22:00;2.90;99.90
20929;DHT22;21895;47.072;15.132;2023-02-15T08:24:36;2.80;99.90
20929;DHT22;21895;47.072;15.132;2023-02-15T08:27:04;3.00;99.90
20929;DHT22;21895;47.072;15.132;2023-02-15T08:29:33;3.10;99.90
20929;DHT22;21895;47.072;15.132;2023-02-15T08:32:04;3.10;99.90
20929;DHT22;21895;47.072;15.132;2023-02-15T08:34:38;3.10;99.90
20929;DHT22;21895;47.072;15.132;2023-02-15T08:37:06;3.30;99.90
20929;DHT22;21895;47.072;15.132;2023-02-15T08:39:33;3.30;99.90
20929;DHT22;21895;47.072;15.132;2023-02-15T08:41:59;3.30;99.90
20929;DHT22;21895;47.072;15.132;2023-02-15T08:44:26;3.40;99.90
20929;DHT22;21895;47.072;15.132;2023-02-15T08:46:52;3.50;99.90
20929;DHT22;21895;47.072;15.132;2023-02-15T08:49:21;3.60;99.90
20929;DHT22;21895;47.072;15.132;2023-02-15T08:51:48;3.60;99.90
20929;DHT22;21895;47.072;15.132;2023-02-15T08:54:18;3.60;99.90
20929;DHT22;21895;47.072;15.132;2023-02-15T08:56:46;3.60;99.90
20929;DHT22;21895;47.072;15.132;2023-02-15T08:59:19;3.60;99.90
20929;DHT22;21895;47.072;15.132;2023-02-15T09:01:49;3.60;99.90
20929;DHT22;21895;47.072;15.132;2023-02-15T09:04:17;3.50;99.90
20929;DHT22;21895;47.072;15.132;2023-02-15T09:06:47;3.50;99.90
20929;DHT22;21895;47.072;15.132;2023-02-15T09:09:16;3.60;99.90
20929;DHT22;21895;47.072;15.132;2023-02-15T09:11:46;3.60;99.90
20929;DHT22;21895;47.072;15.132;2023-02-15T09:14:24;3.70;99.90
20929;DHT22;21895;47.072;15.132;2023-02-15T09:16:53;3.80;99.90
20929;DHT22;21895;47.072;15.132;2023-02-15T09:19:21;3.90;99.90
20929;DHT22;21895;47.072;15.132;2023-02-15T09:21:49;3.90;99.90
20929;DHT22;21895;47.072;15.132;2023-02-15T09:24:16;3.90;99.90
20929;DHT22;21895;47.072;15.132;2023-02-15T09:26:45;4.00;99.90
20929;DHT22;21895;47.072;15.132;2023-02-15T09:29:14;4.10;99.90
20929;DHT22;21895;47.072;15.132;2023-02-15T09:31:46;4.20;99.90
20929;DHT22;21895;47.072;15.132;2023-02-15T09:34:19;4.30;99.90
20929;DHT22;21895;47.072;15.132;2023-02-15T09:36:46;4.40;99.90
20929;DHT22;21895;47.072;15.132;2023-02-15T09:39:24;4.40;99.90
20929;DHT22;21895;47.072;15.132;2023-02-15T09:43:33;4.50;99.90
20929;DHT22;21895;47.072;15.132;2023-02-15T09:46:34;4.70;99.90
20929;DHT22;21895;47.072;15.132;2023-02-15T09:51:11;4.90;99.90
20929;DHT22;21895;47.072;15.132;2023-02-15T09:54:49;5.50;99.90
20929;DHT22;21895;47.072;15.132;2023-02-15T09:58:02;5.80;99.90
20929;DHT22;21895;47.072;15.132;2023-02-15T10:02:50;6.20;99.90
20929;DHT22;21895;47.072;15.132;2023-02-15T10:21:52;5.70;99.90
20929;DHT22;21895;47.072;15.132;2023-02-15T10:29:38;5.60;99.90
20929;DHT22;21895;47.072;15.132;2023-02-15T10:33:33;5.80;99.90
20929;DHT22;21895;47.072;15.132;2023-02-15T10:36:37;5.80;99.90
20929;DHT22;21895;47.072;15.132;2023-02-15T10:42:06;5.90;99.80
20929;DHT22;21895;47.072;15.132;2023-02-15T10:54:45;6.00;99.40
20929;DHT22;21895;47.072;15.132;2023-02-15T11:00:26;6.30;98.30
20929;DHT22;21895;47.072;15.132;2023-02-15T11:09:25;6.50;98.20
20929;DHT22;21895;47.072;15.132;2023-02-15T11:12:00;6.80;97.80
20929;DHT22;21895;47.072;15.132;2023-02-15T11:15:59;6.80;98.10
20929;DHT22;21895;47.072;15.132;2023-02-15T11:18:37;6.90;97.40
20929;DHT22;21895;47.072;15.132;2023-02-15T11:24:21;6.90;97.60
20929;DHT22;21895;47.072;15.132;2023-02-15T11:27:10;7.00;97.50
20929;DHT22;21895;47.072;15.132;2023-02-15T11:30:04;7.00;97.50
20929;DHT22;21895;47.072;15.132;2023-02-15T11:32:47;7.10;97.30
20929;DHT22;21895;47.072;15.132;2023-02-15T11:35:32;7.20;97.40
20929;DHT22;21895;47.072;15.132;2023-02-15T11:38:10;7.30;97.40
20929;DHT22;21895;47.072;15.132;2023-02-15T11:40:48;7.30;97.40
20929;DHT22;21895;47.072;15.132;2023-02-15T11:45:43;7.50;97.60
20929;DHT22;21895;47.072;15.132;2023-02-15T11:48:13;7.60;96.90
20929;DHT22;21895;47.072;15.132;2023-02-15T11:50:42;7.60;96.90
20929;DHT22;21895;47.072;15.132;2023-02-15T11:53:21;7.70;96.60
20929;DHT22;21895;47.072;15.132;2023-02-15T11:55:54;7.70;96.80
20929;DHT22;21895;47.072;15.132;2023-02-15T11:58:44;7.70;96.80
20929;DHT22;21895;47.072;15.132;2023-02-15T12:01:30;7.90;96.80
20929;DHT22;21895;47.072;15.132;2023-02-15T12:04:34;7.90;96.70
20929;DHT22;21895;47.072;15.132;2023-02-15T12:07:24;8.00;96.40
20929;DHT22;21895;47.072;15.132;2023-02-15T12:10:16;8.10;96.40
20929;DHT22;21895;47.072;15.132;2023-02-15T12:13:15;8.30;95.90
20929;DHT22;21895;47.072;15.132;2023-02-15T12:15:49;8.20;95.90
20929;DHT22;21895;47.072;15.132;2023-02-15T12:18:41;8.10;96.00
20929;DHT22;21895;47.072;15.132;2023-02-15T12:21:26;8.20;96.10
20929;DHT22;21895;47.072;15.132;2023-02-15T12:24:03;8.30;95.90
20929;DHT22;21895;47.072;15.132;2023-02-15T12:26:43;8.40;95.80
20929;DHT22;21895;47.072;15.132;2023-02-15T12:29:23;8.40;95.70
20929;DHT22;21895;47.072;15.132;2023-02-15T12:31:53;8.50;95.30
20929;DHT22;21895;47.072;15.132;2023-02-15T12:34:27;8.40;95.40
20929;DHT22;21895;47.072;15.132;2023-02-15T12:37:09;8.40;95.70
20929;DHT22;21895;47.072;15.132;2023-02-15T12:40:00;8.50;95.80
20929;DHT22;21895;47.072;15.132;2023-02-15T12:42:44;8.60;95.00
20929;DHT22;21895;47.072;15.132;2023-02-15T12:47:09;8.80;94.70
20929;DHT22;21895;47.072;15.132;2023-02-15T12:49:45;8.60;94.90
20929;DHT22;21895;47.072;15.132;2023-02-15T12:52:38;8.60;95.00
20929;DHT22;21895;47.072;15.132;2023-02-15T12:55:25;8.70;94.80
20929;DHT22;21895;47.072;15.132;2023-02-15T12:58:19;8.80;95.20
20929;DHT22;21895;47.072;15.132;2023-02-15T13:00:48;8.70;94.80
20929;DHT22;21895;47.072;15.132;2023-02-15T13:04:34;8.70;95.00
20929;DHT22;21895;47.072;15.132;2023-02-15T13:07:02;8.70;94.90
20929;DHT22;21895;47.072;15.132;2023-02-15T13:09:46;8.80;95.10
20929;DHT22;21895;47.072;15.132;2023-02-15T13:12:23;8.80;95.00
20929;DHT22;21895;47.072;15.132;2023-02-15T13:14:54;8.90;94.80
20929;DHT22;21895;47.072;15.132;2023-02-15T13:17:26;9.00;95.20
20929;DHT22;21895;47.072;15.132;2023-02-15T13:19:59;9.10;95.20
20929;DHT22;21895;47.072;15.132;2023-02-15T13:22:41;9.00;95.10
20929;DHT22;21895;47.072;15.132;2023-02-15T13:25:23;9.00;95.00
20929;DHT22;21895;47.072;15.132;2023-02-15T13:27:55;8.90;95.30
20929;DHT22;21895;47.072;15.132;2023-02-15T13:30:30;9.00;95.20
20929;DHT22;21895;47.072;15.132;2023-02-15T13:33:17;9.00;95.00
20929;DHT22;21895;47.072;15.132;2023-02-15T13:50:16;8.80;96.00
20929;DHT22;21895;47.072;15.132;2023-02-15T13:53:34;8.80;95.80
20929;DHT22;21895;47.072;15.132;2023-02-15T14:07:47;8.80;95.70
20929;DHT22;21895;47.072;15.132;2023-02-15T14:13:43;8.70;96.00
20929;DHT22;21895;47.072;15.132;2023-02-15T14:18:22;8.50;96.30
20929;DHT22;21895;47.072;15.132;2023-02-15T14:28:30;8.50;96.50
20929;DHT22;21895;47.072;15.132;2023-02-15T14:31:11;8.40;97.00
20929;DHT22;21895;47.072;15.132;2023-02-15T14:33:43;8.40;96.80
20929;DHT22;21895;47.072;15.132;2023-02-15T14:36:19;8.50;96.80
20929;DHT22;21895;47.072;15.132;2023-02-15T14:44:08;8.50;96.70
20929;DHT22;21895;47.072;15.132;2023-02-15T14:49:40;8.30;96.90
20929;DHT22;21895;47.072;15.132;2023-02-15T14:52:08;8.30;97.00
20929;DHT22;21895;47.072;15.132;2023-02-15T14:54:58;8.20;96.90
20929;DHT22;21895;47.072;15.132;2023-02-15T14:57:26;8.20;97.00
20929;DHT22;21895;47.072;15.132;2023-02-15T15:00:01;8.10;97.20
20929;DHT22;21895;47.072;15.132;2023-02-15T15:02:47;8.00;97.20
20929;DHT22;21895;47.072;15.132;2023-02-15T15:05:28;8.00;97.30
20929;DHT22;21895;47.072;15.132;2023-02-15T15:08:03;7.90;97.50
20929;DHT22;21895;47.072;15.132;2023-02-15T15:10:43;7.80;97.70
20929;DHT22;21895;47.072;15.132;2023-02-15T15:14:36;7.70;97.80
20929;DHT22;21895;47.072;15.132;2023-02-15T15:17:05;7.70;97.70
20929;DHT22;21895;47.072;15.132;2023-02-15T15:21:06;7.60;97.90
20929;DHT22;21895;47.072;15.132;2023-02-15T15:23:42;7.60;98.00
20929;DHT22;21895;47.072;15.132;2023-02-15T15:26:28;7.50;98.30
20929;DHT22;21895;47.072;15.132;2023-02-15T15:29:00;7.40;98.40
20929;DHT22;21895;47.072;15.132;2023-02-15T15:31:51;7.50;98.30
20929;DHT22;21895;47.072;15.132;2023-02-15T15:43:29;7.10;98.90
20929;DHT22;21895;47.072;15.132;2023-02-15T15:48:38;7.10;98.90
20929;DHT22;21895;47.072;15.132;2023-02-15T15:51:29;6.70;99.40
20929;DHT22;21895;47.072;15.132;2023-02-15T15:54:00;6.60;99.70
20929;DHT22;21895;47.072;15.132;2023-02-15T15:56:31;6.50;99.90
20929;DHT22;21895;47.072;15.132;2023-02-15T15:59:06;6.40;99.90
20929;DHT22;21895;47.072;15.132;2023-02-15T16:01:42;6.30;99.90
20929;DHT22;21895;47.072;15.132;2023-02-15T16:04:12;6.10;99.90
20929;DHT22;21895;47.072;15.132;2023-02-15T16:06:48;6.00;99.90
20929;DHT22;21895;47.072;15.132;2023-02-15T16:09:23;5.80;99.90
20929;DHT22;21895;47.072;15.132;2023-02-15T16:11:54;5.60;99.90
20929;DHT22;21895;47.072;15.132;2023-02-15T16:17:13;5.30;99.90
20929;DHT22;21895;47.072;15.132;2023-02-15T16:19:46;5.20;99.90
20929;DHT22;21895;47.072;15.132;2023-02-15T16:22:16;5.00;99.90
20929;DHT22;21895;47.072;15.132;2023-02-15T16:25:35;4.90;99.90
20929;DHT22;21895;47.072;15.132;2023-02-15T16:28:34;4.60;99.90
20929;DHT22;21895;47.072;15.132;2023-02-15T16:31:07;4.30;99.90
20929;DHT22;21895;47.072;15.132;2023-02-15T16:33:40;4.20;99.90
20929;DHT22;21895;47.072;15.132;2023-02-15T16:36:27;4.00;99.90
20929;DHT22;21895;47.072;15.132;2023-02-15T16:39:07;3.80;99.90
20929;DHT22;21895;47.072;15.132;2023-02-15T16:41:35;3.70;99.90
20929;DHT22;21895;47.072;15.132;2023-02-15T16:44:09;3.60;99.90
20929;DHT22;21895;47.072;15.132;2023-02-15T16:46:46;3.40;99.90
20929;DHT22;21895;47.072;15.132;2023-02-15T16:49:20;3.40;99.90
20929;DHT22;21895;47.072;15.132;2023-02-15T16:52:03;3.40;99.90
20929;DHT22;21895;47.072;15.132;2023-02-15T16:54:32;3.30;99.90
20929;DHT22;21895;47.072;15.132;2023-02-15T16:57:01;3.20;99.90
20929;DHT22;21895;47.072;15.132;2023-02-15T16:59:35;3.10;99.90
20929;DHT22;21895;47.072;15.132;2023-02-15T17:02:23;2.90;99.90
20929;DHT22;21895;47.072;15.132;2023-02-15T17:05:21;2.80;99.90
20929;DHT22;21895;47.072;15.132;2023-02-15T17:11:22;2.60;99.90
20929;DHT22;21895;47.072;15.132;2023-02-15T17:14:37;2.60;99.90
20929;DHT22;21895;47.072;15.132;2023-02-15T17:17:12;2.50;99.90
20929;DHT22;21895;47.072;15.132;2023-02-15T17:19:48;2.40;99.90
20929;DHT22;21895;47.072;15.132;2023-02-15T17:22:20;2.40;99.90
20929;DHT22;21895;47.072;15.132;2023-02-15T17:24:57;2.30;99.90
20929;DHT22;21895;47.072;15.132;2023-02-15T17:27:27;2.20;99.90
20929;DHT22;21895;47.072;15.132;2023-02-15T17:29:59;2.20;99.90
20929;DHT22;21895;47.072;15.132;2023-02-15T17:32:30;2.10;99.90
20929;DHT22;21895;47.072;15.132;2023-02-15T17:35:17;2.00;99.90
20929;DHT22;21895;47.072;15.132;2023-02-15T17:37:47;2.00;99.90
20929;DHT22;21895;47.072;15.132;2023-02-15T17:40:21;1.80;99.90
20929;DHT22;21895;47.072;15.132;2023-02-15T17:42:56;1.70;99.90
20929;DHT22;21895;47.072;15.132;2023-02-15T17:45:26;1.60;99.90
20929;DHT22;21895;47.072;15.132;2023-02-15T17:48:21;1.60;99.90
20929;DHT22;21895;47.072;15.132;2023-02-15T17:50:50;1.60;99.90
20929;DHT22;21895;47.072;15.132;2023-02-15T17:53:17;1.70;99.90
20929;DHT22;21895;47.072;15.132;2023-02-15T17:55:44;1.60;99.90
20929;DHT22;21895;47.072;15.132;2023-02-15T17:58:15;1.50;99.90
20929;DHT22;21895;47.072;15.132;2023-02-15T18:00:49;1.60;99.90
20929;DHT22;21895;47.072;15.132;2023-02-15T18:03:54;1.60;99.90
20929;DHT22;21895;47.072;15.132;2023-02-15T18:06:41;1.60;99.90
20929;DHT22;21895;47.072;15.132;2023-02-15T18:09:27;1.60;99.90
20929;DHT22;21895;47.072;15.132;2023-02-15T18:12:26;1.50;99.90
20929;DHT22;21895;47.072;15.132;2023-02-15T18:14:55;1.40;99.90
20929;DHT22;21895;47.072;15.132;2023-02-15T18:17:33;1.30;99.90
20929;DHT22;21895;47.072;15.132;2023-02-15T18:20:04;1.20;99.90
20929;DHT22;21895;47.072;15.132;2023-02-15T18:22:58;1.20;99.90
20929;DHT22;21895;47.072;15.132;2023-02-15T18:25:27;1.10;99.90
20929;DHT22;21895;47.072;15.132;2023-02-15T18:27:54;1.00;99.90
20929;DHT22;21895;47.072;15.132;2023-02-15T18:30:22;1.00;99.90
20929;DHT22;21895;47.072;15.132;2023-02-15T18:32:54;0.90;99.90
20929;DHT22;21895;47.072;15.132;2023-02-15T18:35:25;1.00;99.90
20929;DHT22;21895;47.072;15.132;2023-02-15T18:37:55;1.00;99.90
20929;DHT22;21895;47.072;15.132;2023-02-15T18:40:25;0.90;99.90
20929;DHT22;21895;47.072;15.132;2023-02-15T18:42:53;0.90;99.90
20929;DHT22;21895;47.072;15.132;2023-02-15T18:45:26;0.90;99.90
20929;DHT22;21895;47.072;15.132;2023-02-15T18:47:57;0.90;99.90
20929;DHT22;21895;47.072;15.132;2023-02-15T18:50:27;0.90;99.90
20929;DHT22;21895;47.072;15.132;2023-02-15T18:52:58;0.80;99.90
20929;DHT22;21895;47.072;15.132;2023-02-15T18:55:26;0.70;99.90
20929;DHT22;21895;47.072;15.132;2023-02-15T18:57:55;0.60;99.90